Time;durP1;ratioP1;P1;durP2;ratioP2;P2;SDS_P1;SDS_P2;PMS_P1;PMS_P2;Temp;Humidity;BMP_temperature;BMP_pressure;BME280_temperature;BME280_humidity;BME280_pressure;Samples;Min_cycle;Max_cycle;Signal;HPM_P1;HPM_P2
2021/01/11 00:00:27;;;;;;;2.30;2.13;;;-2.80;98.00;;;;;;5072844;28;20214;-68
2021/01/11 00:02:54;;;;;;;1.30;1.27;;;-2.70;98.00;;;;;;5070756;28;20202;-69
2021/01/11 00:05:21;;;;;;;1.70;1.55;;;-2.70;98.00;;;;;;5072652;28;20207;-68
2021/01/11 00:07:48;;;;;;;4.60;1.98;;;-2.70;98.00;;;;;;5069859;28;20210;-69
2021/01/11 00:10:16;;;;;;;2.28;2.08;;;-2.70;98.00;;;;;;5072508;28;20257;-68
2021/01/11 00:12:43;;;;;;;1.20;1.20;;;-2.70;98.00;;;;;;5069974;28;20202;-70
2021/01/11 00:15:11;;;;;;;3.40;2.33;;;-2.70;98.00;;;;;;5072423;28;20206;-68
2021/01/11 00:17:38;;;;;;;1.30;1.10;;;-2.90;98.00;;;;;;5069932;28;20783;-68
2021/01/11 00:20:06;;;;;;;1.10;1.00;;;-3.10;98.00;;;;;;5072354;28;20203;-69
2021/01/11 00:22:33;;;;;;;1.50;1.40;;;-3.20;98.00;;;;;;5069921;28;20207;-68
2021/01/11 00:25:08;;;;;;;1.35;1.23;;;-3.30;98.00;;;;;;5072255;28;20708;-69
2021/01/11 00:27:34;;;;;;;1.55;1.48;;;-3.50;98.00;;;;;;5068573;28;20202;-68
2021/01/11 00:30:04;;;;;;;1.50;1.50;;;-3.60;98.00;;;;;;5071794;28;20226;-68
2021/01/11 00:32:34;;;;;;;2.15;2.00;;;-3.70;98.00;;;;;;5069740;28;20695;-68
2021/01/11 00:35:00;;;;;;;5.45;2.28;;;-3.70;98.00;;;;;;5070726;28;20259;-68
2021/01/11 00:37:27;;;;;;;1.20;1.10;;;-3.60;98.00;;;;;;5069362;28;20214;-68
2021/01/11 00:39:53;;;;;;;2.75;1.85;;;-3.40;98.00;;;;;;5071840;28;20203;-68
2021/01/11 00:42:21;;;;;;;1.48;1.33;;;-3.20;98.00;;;;;;5069875;28;20838;-70
2021/01/11 00:44:48;;;;;;;1.85;1.75;;;-3.30;98.00;;;;;;5072067;28;20202;-68
2021/01/11 00:47:15;;;;;;;2.35;1.88;;;-3.30;98.00;;;;;;5069574;28;20213;-70
2021/01/11 00:49:42;;;;;;;2.55;1.83;;;-3.30;98.00;;;;;;5071897;28;20288;-68
2021/01/11 00:52:09;;;;;;;1.20;1.10;;;-3.60;98.00;;;;;;5069523;28;20265;-67
2021/01/11 00:54:36;;;;;;;2.00;1.52;;;-3.80;98.00;;;;;;5071746;28;20331;-69
2021/01/11 00:57:02;;;;;;;2.72;1.73;;;-3.80;98.00;;;;;;5068523;28;20573;-68
2021/01/11 00:59:29;;;;;;;2.85;1.77;;;-3.90;98.00;;;;;;5070702;28;20665;-67
2021/01/11 01:01:57;;;;;;;1.17;1.00;;;-4.00;98.00;;;;;;5069135;28;20703;-68
2021/01/11 01:04:24;;;;;;;2.22;1.88;;;-4.20;98.00;;;;;;5071669;28;20213;-68
2021/01/11 01:06:50;;;;;;;3.35;3.15;;;-4.20;98.00;;;;;;5069263;28;20288;-68
2021/01/11 01:09:17;;;;;;;1.30;1.30;;;-4.20;98.00;;;;;;5071415;28;20226;-68
2021/01/11 01:11:43;;;;;;;1.20;1.08;;;-4.20;98.00;;;;;;5069054;28;20206;-68
2021/01/11 01:14:18;;;;;;;2.03;1.90;;;-4.20;98.00;;;;;;5071490;28;20210;-68
2021/01/11 01:16:45;;;;;;;3.70;1.30;;;-4.40;98.00;;;;;;5068909;28;20202;-68
2021/01/11 01:19:12;;;;;;;1.20;1.10;;;-4.30;98.00;;;;;;5070858;28;20660;-69
2021/01/11 01:21:38;;;;;;;2.80;1.65;;;-4.40;98.00;;;;;;5069114;28;20211;-68
2021/01/11 01:24:07;;;;;;;2.22;1.80;;;-4.30;98.00;;;;;;5071511;28;20616;-68
2021/01/11 01:26:33;;;;;;;2.10;1.98;;;-4.30;98.00;;;;;;5068998;28;20202;-68
2021/01/11 01:29:00;;;;;;;1.67;1.63;;;-4.30;98.00;;;;;;5071441;28;20230;-69
2021/01/11 01:31:26;;;;;;;1.20;1.10;;;-4.40;98.00;;;;;;5068918;28;20206;-69
2021/01/11 01:33:54;;;;;;;2.10;1.60;;;-4.50;98.00;;;;;;5071571;28;20911;-68
2021/01/11 01:36:21;;;;;;;1.85;1.30;;;-4.50;98.00;;;;;;5068990;28;20664;-68
2021/01/11 01:38:47;;;;;;;1.40;1.35;;;-4.50;98.00;;;;;;5071497;28;20807;-68
2021/01/11 01:41:14;;;;;;;2.00;1.52;;;-4.70;98.00;;;;;;5071622;28;20216;-69
2021/01/11 01:43:44;;;;;;;1.42;1.38;;;-4.70;98.00;;;;;;5069162;28;20198;-68
2021/01/11 01:46:15;;;;;;;1.45;1.40;;;-4.80;98.00;;;;;;5071446;28;20248;-67
2021/01/11 01:48:42;;;;;;;1.55;1.52;;;-4.60;98.00;;;;;;5069424;28;20701;-68
2021/01/11 01:51:11;;;;;;;2.65;2.15;;;-4.70;98.00;;;;;;5070533;28;20234;-68
2021/01/11 01:53:37;;;;;;;3.75;2.35;;;-4.50;98.00;;;;;;5068667;28;20230;-68
2021/01/11 01:56:04;;;;;;;1.10;1.10;;;-4.30;98.00;;;;;;5070964;28;20207;-68
2021/01/11 01:58:31;;;;;;;1.20;1.10;;;-4.40;98.00;;;;;;5068526;28;20271;-69
2021/01/11 02:00:58;;;;;;;1.20;1.15;;;-4.50;98.00;;;;;;5071181;28;20606;-69
2021/01/11 02:03:25;;;;;;;1.20;1.10;;;-4.70;98.00;;;;;;5068559;28;20220;-70
2021/01/11 02:05:52;;;;;;;2.10;1.98;;;-4.70;98.00;;;;;;5071172;28;20198;-68
2021/01/11 02:08:25;;;;;;;1.60;1.50;;;-4.80;98.00;;;;;;5068690;28;20202;-67
2021/01/11 02:11:11;;;;;;;1.20;1.00;;;-4.90;98.00;;;;;;5073308;28;20640;-68
2021/01/11 02:13:56;;;;;;;1.10;1.00;;;-4.90;98.00;;;;;;5070912;28;20233;-67
2021/01/11 02:16:31;;;;;;;1.30;1.20;;;-4.60;98.00;;;;;;5072696;28;20202;-68
2021/01/11 02:19:12;;;;;;;1.65;1.48;;;-4.70;98.00;;;;;;5074302;28;20212;-68
2021/01/11 02:22:07;;;;;;;3.00;1.73;;;-4.70;98.00;;;;;;5072183;28;20202;-68
2021/01/11 02:25:18;;;;;;;1.45;1.35;;;-4.80;98.00;;;;;;5074475;28;20196;-68
2021/01/11 02:27:47;;;;;;;2.00;1.48;;;-4.90;98.00;;;;;;5072206;28;20203;-71
2021/01/11 02:30:25;;;;;;;2.05;1.60;;;-4.90;98.00;;;;;;5074314;28;20286;-68
2021/01/11 02:32:56;;;;;;;1.20;1.10;;;-5.00;98.00;;;;;;5072366;28;20210;-68
2021/01/11 02:35:25;;;;;;;3.53;1.90;;;-5.10;98.00;;;;;;5073453;28;20224;-68
2021/01/11 02:37:52;;;;;;;2.20;1.40;;;-5.10;98.00;;;;;;5072347;28;20201;-68
2021/01/11 02:40:19;;;;;;;6.57;3.13;;;-5.00;98.00;;;;;;5074230;28;20224;-68
2021/01/11 02:42:46;;;;;;;1.20;1.00;;;-4.90;98.00;;;;;;5072097;28;20233;-67
2021/01/11 02:45:14;;;;;;;1.50;1.40;;;-4.80;98.00;;;;;;5074458;28;20249;-68
2021/01/11 02:48:05;;;;;;;1.40;1.17;;;-5.00;98.00;;;;;;5071463;28;20706;-69
2021/01/11 02:50:40;;;;;;;1.20;1.20;;;-5.10;98.00;;;;;;5074210;28;20207;-67
2021/01/11 02:53:10;;;;;;;1.30;1.20;;;-5.00;98.00;;;;;;5071521;28;20208;-68
2021/01/11 02:55:48;;;;;;;1.60;1.40;;;-4.90;98.00;;;;;;5072523;28;20216;-68
2021/01/11 02:58:26;;;;;;;2.38;1.67;;;-5.00;98.00;;;;;;5071117;28;20297;-68
2021/01/11 03:00:57;;;;;;;1.75;1.65;;;-5.10;98.00;;;;;;5073203;28;20720;-67
2021/01/11 03:03:26;;;;;;;1.20;1.00;;;-5.10;98.00;;;;;;5070225;28;20209;-68
2021/01/11 03:05:53;;;;;;;1.58;1.42;;;-5.20;98.00;;;;;;5073461;28;20682;-68
2021/01/11 03:08:23;;;;;;;1.30;1.13;;;-5.30;98.00;;;;;;5071050;28;20202;-68
2021/01/11 03:10:51;;;;;;;1.58;1.55;;;-5.30;98.00;;;;;;5073513;28;20217;-68
2021/01/11 03:13:18;;;;;;;1.30;1.20;;;-5.10;98.00;;;;;;5071248;28;20278;-70
2021/01/11 03:15:44;;;;;;;1.40;1.35;;;-5.00;98.00;;;;;;5073411;28;20283;-68
2021/01/11 03:18:12;;;;;;;1.10;1.00;;;-5.00;98.00;;;;;;5071102;28;20258;-68
2021/01/11 03:20:40;;;;;;;1.35;1.33;;;-5.10;98.00;;;;;;5071907;28;20231;-68
2021/01/11 03:23:06;;;;;;;5.00;2.33;;;-5.00;98.00;;;;;;5070759;28;20268;-68
2021/01/11 03:25:33;;;;;;;2.65;1.95;;;-5.10;98.00;;;;;;5073671;28;20202;-68
2021/01/11 03:27:59;;;;;;;1.20;1.00;;;-5.20;98.00;;;;;;5071196;28;20198;-68
2021/01/11 03:30:26;;;;;;;1.20;1.17;;;-5.20;98.00;;;;;;5073361;28;20236;-69
2021/01/11 03:32:53;;;;;;;1.42;1.33;;;-5.30;98.00;;;;;;5070773;28;20201;-67
2021/01/11 03:35:20;;;;;;;2.22;1.50;;;-5.40;98.00;;;;;;5072204;28;20553;-70
2021/01/11 03:37:47;;;;;;;3.80;2.75;;;-5.40;98.00;;;;;;5070778;28;20213;-67
2021/01/11 03:40:14;;;;;;;2.30;1.52;;;-5.50;98.00;;;;;;5073068;28;20210;-68
2021/01/11 03:42:41;;;;;;;1.58;1.35;;;-5.40;98.00;;;;;;5071101;28;20209;-68
2021/01/11 03:45:10;;;;;;;1.20;1.10;;;-5.50;98.00;;;;;;5072965;28;20213;-68
2021/01/11 03:47:37;;;;;;;3.97;2.30;;;-5.40;98.00;;;;;;5070470;28;20258;-67
2021/01/11 03:50:04;;;;;;;1.20;1.00;;;-5.30;98.00;;;;;;5072817;28;20731;-69
2021/01/11 03:52:34;;;;;;;2.28;2.10;;;-5.20;98.00;;;;;;5070681;28;20209;-68
2021/01/11 03:55:01;;;;;;;1.20;1.17;;;-5.30;98.00;;;;;;5072861;28;20211;-68
2021/01/11 03:57:30;;;;;;;1.73;1.63;;;-5.40;98.00;;;;;;5070279;28;20723;-68
2021/01/11 03:59:56;;;;;;;1.20;1.10;;;-5.50;98.00;;;;;;5071213;28;20211;-67
2021/01/11 04:02:23;;;;;;;1.35;1.33;;;-5.60;98.00;;;;;;5070527;28;20255;-68
2021/01/11 04:04:49;;;;;;;1.63;1.52;;;-5.70;98.00;;;;;;5072773;28;20214;-68
2021/01/11 04:07:16;;;;;;;1.40;1.30;;;-5.70;98.00;;;;;;5070374;28;20202;-68
2021/01/11 04:09:43;;;;;;;2.63;2.20;;;-5.80;98.00;;;;;;5071207;28;20284;-68
2021/01/11 04:12:10;;;;;;;1.30;1.25;;;-5.90;98.00;;;;;;5069922;28;20206;-68
2021/01/11 04:14:37;;;;;;;3.90;2.80;;;-5.70;98.00;;;;;;5072206;28;20213;-68
2021/01/11 04:17:03;;;;;;;2.00;1.60;;;-5.50;98.00;;;;;;5069894;28;20282;-67
2021/01/11 04:19:30;;;;;;;1.90;1.48;;;-5.40;98.00;;;;;;5072158;28;20197;-68
2021/01/11 04:21:56;;;;;;;3.30;2.63;;;-5.40;98.00;;;;;;5069732;28;20209;-68
2021/01/11 04:24:23;;;;;;;1.17;1.00;;;-5.30;98.00;;;;;;5072646;28;20209;-68
2021/01/11 04:26:50;;;;;;;1.58;1.48;;;-5.30;98.00;;;;;;5070096;28;20202;-67
2021/01/11 04:29:16;;;;;;;1.10;0.90;;;-5.40;98.00;;;;;;5072244;28;20249;-68
2021/01/11 04:31:46;;;;;;;1.13;1.10;;;-5.50;98.00;;;;;;5069753;28;20227;-68
2021/01/11 04:34:12;;;;;;;2.10;1.92;;;-5.70;98.00;;;;;;5072179;28;20221;-69
2021/01/11 04:36:41;;;;;;;2.10;1.33;;;-5.80;98.00;;;;;;5069904;28;20281;-69
2021/01/11 04:39:08;;;;;;;1.17;1.00;;;-5.90;98.00;;;;;;5071914;28;20296;-67
2021/01/11 04:41:36;;;;;;;6.00;1.90;;;-5.90;98.00;;;;;;5071244;28;20247;-68
2021/01/11 04:44:08;;;;;;;1.30;1.10;;;-5.90;98.00;;;;;;5071852;28;20609;-69
2021/01/11 04:46:35;;;;;;;1.10;1.10;;;-5.90;98.00;;;;;;5071477;28;20200;-68
2021/01/11 04:49:02;;;;;;;1.88;1.30;;;-6.10;98.00;;;;;;5070371;28;20232;-68
2021/01/11 04:51:31;;;;;;;2.58;1.50;;;-6.10;98.00;;;;;;5071937;28;20604;-68
2021/01/11 04:53:59;;;;;;;2.95;1.85;;;-6.10;98.00;;;;;;5069462;28;20204;-67
2021/01/11 04:56:26;;;;;;;2.75;1.85;;;-6.00;98.00;;;;;;5071809;28;20651;-68
2021/01/11 04:58:56;;;;;;;1.20;1.10;;;-6.00;98.00;;;;;;5069337;28;20248;-68
2021/01/11 05:01:25;;;;;;;1.77;1.67;;;-5.80;98.00;;;;;;5071403;28;20208;-69
2021/01/11 05:03:57;;;;;;;1.50;1.40;;;-5.90;98.00;;;;;;5069174;28;20267;-68
2021/01/11 05:06:24;;;;;;;1.58;1.48;;;-5.90;98.00;;;;;;5071581;28;20214;-68
2021/01/11 05:08:50;;;;;;;1.10;1.00;;;-5.80;98.00;;;;;;5069250;28;20229;-69
2021/01/11 05:11:17;;;;;;;2.47;1.98;;;-5.70;98.00;;;;;;5071509;28;20209;-69
2021/01/11 05:13:44;;;;;;;1.65;1.58;;;-5.80;98.00;;;;;;5069220;28;20229;-68
2021/01/11 05:16:11;;;;;;;1.80;1.70;;;-5.90;98.00;;;;;;5071502;28;20213;-69
2021/01/11 05:18:39;;;;;;;1.45;1.38;;;-6.00;98.00;;;;;;5069382;28;20668;-69
2021/01/11 05:21:06;;;;;;;2.95;2.20;;;-5.90;98.00;;;;;;5071767;28;20267;-68
2021/01/11 05:23:36;;;;;;;1.33;1.25;;;-5.70;98.00;;;;;;5069323;28;20209;-69
2021/01/11 05:26:14;;;;;;;2.03;1.92;;;-5.80;98.00;;;;;;5071349;28;20213;-68
2021/01/11 05:28:41;;;;;;;1.58;1.50;;;-5.90;98.00;;;;;;5068724;28;20234;-69
2021/01/11 05:31:08;;;;;;;4.65;1.98;;;-6.00;98.00;;;;;;5071519;28;20258;-68
2021/01/11 05:33:36;;;;;;;1.10;1.10;;;-6.10;98.00;;;;;;5067740;28;20209;-68
2021/01/11 05:36:06;;;;;;;1.40;1.30;;;-6.10;98.00;;;;;;5071446;28;20260;-68
2021/01/11 05:38:37;;;;;;;1.15;1.10;;;-6.00;98.00;;;;;;5068236;28;20214;-67
2021/01/11 05:41:13;;;;;;;4.75;2.75;;;-5.90;98.00;;;;;;5071264;28;20211;-68
2021/01/11 05:43:40;;;;;;;1.20;1.15;;;-5.90;98.00;;;;;;5069048;28;20204;-68
2021/01/11 05:46:24;;;;;;;1.40;1.30;;;-5.90;98.00;;;;;;5073367;28;20538;-68
2021/01/11 05:48:58;;;;;;;1.40;1.35;;;-6.00;98.00;;;;;;5071494;28;20281;-68
2021/01/11 05:51:26;;;;;;;1.35;1.30;;;-6.00;98.00;;;;;;5075294;28;20206;-68
2021/01/11 05:53:52;;;;;;;1.42;1.30;;;-5.90;98.00;;;;;;5072726;28;20199;-68
2021/01/11 05:56:19;;;;;;;1.80;1.70;;;-5.70;98.00;;;;;;5075173;28;20802;-69
2021/01/11 05:59:05;;;;;;;3.45;1.95;;;-5.50;98.00;;;;;;5072703;28;20225;-68
2021/01/11 06:01:33;;;;;;;9.07;2.03;;;-5.40;98.00;;;;;;5074995;28;20200;-69
2021/01/11 06:03:59;;;;;;;1.60;1.55;;;-5.30;98.00;;;;;;5072738;28;20229;-68
2021/01/11 06:06:27;;;;;;;1.20;1.10;;;-5.20;98.00;;;;;;5075159;28;20288;-68
2021/01/11 06:08:54;;;;;;;1.77;1.67;;;-5.40;98.00;;;;;;5072899;28;20208;-68
2021/01/11 06:11:22;;;;;;;1.85;1.75;;;-5.50;98.00;;;;;;5075056;28;20210;-68
2021/01/11 06:13:51;;;;;;;1.10;1.08;;;-5.50;98.00;;;;;;5073086;28;20203;-68
2021/01/11 06:16:19;;;;;;;1.23;1.20;;;-5.60;98.00;;;;;;5074661;28;20213;-69
2021/01/11 06:18:48;;;;;;;1.20;1.10;;;-5.60;98.00;;;;;;5071106;28;20240;-68
2021/01/11 06:21:15;;;;;;;1.20;1.00;;;-5.60;98.00;;;;;;5074756;28;20644;-69
2021/01/11 06:23:42;;;;;;;2.25;2.05;;;-5.50;98.00;;;;;;5072025;28;20210;-68
2021/01/11 06:26:30;;;;;;;1.15;1.00;;;-5.50;98.00;;;;;;5073295;28;20290;-68
2021/01/11 06:28:58;;;;;;;1.10;1.10;;;-5.40;98.00;;;;;;5072270;28;20209;-70
2021/01/11 06:31:29;;;;;;;1.38;1.35;;;-5.20;98.00;;;;;;5074216;28;20210;-68
2021/01/11 06:33:56;;;;;;;1.40;1.30;;;-5.10;98.00;;;;;;5071804;28;20212;-69
2021/01/11 06:36:24;;;;;;;2.03;1.83;;;-5.00;98.00;;;;;;5074171;28;20218;-67
2021/01/11 06:38:53;;;;;;;1.20;1.10;;;-4.90;98.00;;;;;;5072062;28;20226;-68
2021/01/11 06:41:27;;;;;;;1.17;1.00;;;-4.90;98.00;;;;;;5074256;28;20343;-67
2021/01/11 06:44:02;;;;;;;3.70;2.20;;;-4.90;98.00;;;;;;5071736;28;20209;-69
2021/01/11 06:46:45;;;;;;;1.17;1.00;;;-4.80;98.00;;;;;;5074027;28;20259;-68
2021/01/11 06:49:26;;;;;;;4.40;1.98;;;-4.60;98.00;;;;;;5072523;28;20204;-68
2021/01/11 06:52:07;;;;;;;1.20;1.10;;;-4.50;98.00;;;;;;5071622;28;20574;-68
2021/01/11 06:54:41;;;;;;;2.40;2.20;;;-4.50;98.00;;;;;;5073833;28;20202;-68
2021/01/11 06:57:10;;;;;;;4.20;3.38;;;-4.40;98.00;;;;;;5070021;28;20203;-68
2021/01/11 06:59:38;;;;;;;1.20;1.10;;;-4.40;98.00;;;;;;5073594;28;20229;-68
2021/01/11 07:02:25;;;;;;;1.58;1.48;;;-4.30;98.00;;;;;;5071707;28;20198;-68
2021/01/11 07:04:52;;;;;;;1.35;1.33;;;-4.20;98.00;;;;;;5073962;28;20262;-68
2021/01/11 07:07:21;;;;;;;4.15;2.33;;;-4.10;98.00;;;;;;5071776;28;20205;-68
2021/01/11 07:09:55;;;;;;;1.20;1.00;;;-4.30;98.00;;;;;;5073290;28;20658;-67
2021/01/11 07:12:37;;;;;;;2.75;1.58;;;-4.50;98.00;;;;;;5071324;28;20268;-70
2021/01/11 07:15:06;;;;;;;1.40;1.40;;;-4.50;98.00;;;;;;5073629;28;20212;-68
2021/01/11 07:17:40;;;;;;;1.20;1.20;;;-4.60;98.00;;;;;;5071279;28;20202;-68
2021/01/11 07:20:09;;;;;;;1.20;1.10;;;-4.70;98.00;;;;;;5073470;28;20228;-68
2021/01/11 07:22:38;;;;;;;4.13;2.95;;;-4.60;98.00;;;;;;5071325;28;20210;-68
2021/01/11 07:25:23;;;;;;;1.20;1.10;;;-4.50;98.00;;;;;;5073558;28;20485;-68
2021/01/11 07:27:55;;;;;;;1.20;1.10;;;-4.40;98.00;;;;;;5071049;28;20210;-68
2021/01/11 07:30:22;;;;;;;3.38;2.17;;;-4.40;98.00;;;;;;5073438;28;20219;-69
2021/01/11 07:32:48;;;;;;;1.55;1.25;;;-4.30;98.00;;;;;;5071273;28;20211;-68
2021/01/11 07:35:15;;;;;;;1.95;1.75;;;-4.10;98.00;;;;;;5072894;28;20210;-68
2021/01/11 07:37:43;;;;;;;1.30;1.30;;;-4.10;98.00;;;;;;5070869;28;20210;-67
2021/01/11 07:40:11;;;;;;;1.65;1.58;;;-4.00;98.00;;;;;;5072923;28;20444;-68
2021/01/11 07:42:39;;;;;;;1.10;1.00;;;-4.00;98.00;;;;;;5070453;28;20610;-67
2021/01/11 07:45:07;;;;;;;1.15;1.10;;;-3.90;98.00;;;;;;5072828;28;20206;-68
2021/01/11 07:47:35;;;;;;;1.20;1.20;;;-3.90;98.00;;;;;;5070657;28;20206;-69
2021/01/11 07:50:02;;;;;;;3.22;1.55;;;-3.90;98.00;;;;;;5072795;28;20215;-69
2021/01/11 07:52:29;;;;;;;1.42;1.35;;;-3.90;98.00;;;;;;5070585;28;20203;-68
2021/01/11 07:55:00;;;;;;;1.77;1.67;;;-3.80;98.00;;;;;;5073045;28;20290;-67
2021/01/11 07:57:30;;;;;;;1.10;1.00;;;-3.60;98.00;;;;;;5070523;28;20263;-67
2021/01/11 08:00:04;;;;;;;1.85;1.75;;;-3.60;98.00;;;;;;5072703;28;20552;-68
2021/01/11 08:02:33;;;;;;;1.70;1.60;;;-3.60;98.00;;;;;;5070727;28;20213;-68
2021/01/11 08:05:00;;;;;;;1.42;1.42;;;-3.60;98.00;;;;;;5055588;28;20202;-68
2021/01/11 08:07:30;;;;;;;1.25;1.10;;;-3.40;98.00;;;;;;5070159;28;20735;-68
2021/01/11 08:09:57;;;;;;;1.17;1.10;;;-3.20;98.00;;;;;;5072610;28;20202;-68
2021/01/11 08:12:27;;;;;;;1.17;1.08;;;-3.10;98.00;;;;;;5069487;28;20210;-69
2021/01/11 08:15:02;;;;;;;3.03;1.75;;;-3.10;98.00;;;;;;5070809;28;20202;-68
2021/01/11 08:17:38;;;;;;;1.40;1.15;;;-3.20;98.00;;;;;;5069423;28;20209;-67
2021/01/11 08:20:06;;;;;;;1.10;1.10;;;-3.20;98.00;;;;;;5072088;28;20221;-68
2021/01/11 08:22:34;;;;;;;1.20;1.10;;;-3.10;98.00;;;;;;5070152;28;20218;-68
2021/01/11 08:25:02;;;;;;;1.20;1.20;;;-3.30;98.00;;;;;;5070942;28;20198;-68
2021/01/11 08:27:32;;;;;;;1.20;1.10;;;-3.50;98.00;;;;;;5070389;28;20206;-68
2021/01/11 08:30:04;;;;;;;8.80;3.10;;;-3.70;98.00;;;;;;5072158;28;20255;-68
2021/01/11 08:32:34;;;;;;;1.80;1.70;;;-3.90;98.00;;;;;;5068432;28;20206;-67
2021/01/11 08:35:08;;;;;;;1.85;1.65;;;-4.00;98.00;;;;;;5071204;28;20301;-67
2021/01/11 08:37:34;;;;;;;1.17;1.10;;;-4.00;98.00;;;;;;5069099;28;20208;-67
2021/01/11 08:40:04;;;;;;;2.95;1.67;;;-3.90;98.00;;;;;;5070035;28;20249;-66
2021/01/11 08:42:31;;;;;;;1.20;1.10;;;-4.00;98.00;;;;;;5069166;28;20206;-67
2021/01/11 08:45:34;;;;;;;1.10;1.00;;;-4.00;98.00;;;;;;5070965;28;20203;-67
2021/01/11 08:48:02;;;;;;;1.55;1.48;;;-3.80;98.00;;;;;;5068994;28;20202;-66
2021/01/11 08:50:29;;;;;;;1.25;1.23;;;-3.50;98.00;;;;;;5071287;28;20240;-67
2021/01/11 08:52:56;;;;;;;1.15;1.00;;;-3.50;98.00;;;;;;5069163;28;20309;-69
2021/01/11 08:55:22;;;;;;;1.52;1.52;;;-3.60;98.00;;;;;;5071000;28;20691;-67
2021/01/11 08:57:56;;;;;;;1.50;1.40;;;-3.50;98.00;;;;;;5068795;28;20235;-68
2021/01/11 09:00:23;;;;;;;6.85;3.20;;;-3.40;98.00;;;;;;5071304;28;20708;-68
2021/01/11 09:02:51;;;;;;;1.92;1.80;;;-3.60;98.00;;;;;;5068129;28;20207;-68
2021/01/11 09:05:22;;;;;;;1.60;1.42;;;-3.60;98.00;;;;;;5071272;28;20403;-68
2021/01/11 09:07:49;;;;;;;1.10;1.10;;;-3.60;98.00;;;;;;5068714;28;20576;-69
2021/01/11 09:10:35;;;;;;;3.15;1.95;;;-3.60;98.00;;;;;;5070948;28;20244;-68
2021/01/11 09:13:17;;;;;;;1.30;1.30;;;-3.50;98.00;;;;;;5069015;28;20242;-69
2021/01/11 09:15:44;;;;;;;1.58;1.40;;;-3.60;98.00;;;;;;5071093;28;20213;-68
2021/01/11 09:18:13;;;;;;;1.20;1.13;;;-3.70;98.00;;;;;;5068570;28;20677;-68
2021/01/11 09:20:40;;;;;;;2.75;1.73;;;-3.60;98.00;;;;;;5070308;28;20229;-69
2021/01/11 09:23:07;;;;;;;1.60;1.42;;;-3.70;98.00;;;;;;5067373;28;20210;-68
2021/01/11 09:25:35;;;;;;;4.22;2.15;;;-3.50;98.00;;;;;;5070887;28;20744;-68
2021/01/11 09:28:02;;;;;;;2.20;1.63;;;-3.40;98.00;;;;;;5068796;28;20340;-67
2021/01/11 09:30:30;;;;;;;1.20;1.15;;;-3.40;98.00;;;;;;5070697;28;20203;-67
2021/01/11 09:32:57;;;;;;;1.10;1.00;;;-3.40;98.00;;;;;;5068392;28;20199;-68
2021/01/11 09:35:25;;;;;;;1.92;1.63;;;-3.40;98.00;;;;;;5070734;28;20203;-70
2021/01/11 09:37:52;;;;;;;3.67;1.90;;;-3.30;98.00;;;;;;5067416;28;20202;-67
2021/01/11 09:40:20;;;;;;;1.20;1.10;;;-3.20;98.00;;;;;;5070616;28;20295;-68
2021/01/11 09:42:47;;;;;;;1.20;1.00;;;-3.00;98.00;;;;;;5068218;28;20252;-68
2021/01/11 09:45:14;;;;;;;1.10;1.00;;;-2.90;98.00;;;;;;5070635;28;20210;-68
2021/01/11 09:47:43;;;;;;;1.20;1.00;;;-2.90;98.00;;;;;;5066327;28;20222;-68
2021/01/11 09:50:11;;;;;;;1.60;1.58;;;-2.80;98.00;;;;;;5069270;28;20203;-68
2021/01/11 09:52:39;;;;;;;3.13;2.38;;;-3.00;98.00;;;;;;5067982;28;20664;-68
2021/01/11 09:55:07;;;;;;;1.17;1.05;;;-3.00;98.00;;;;;;5069837;28;20207;-68
2021/01/11 09:57:35;;;;;;;1.17;1.13;;;-3.00;98.00;;;;;;5068308;28;20198;-68
2021/01/11 10:00:04;;;;;;;1.33;1.27;;;-3.10;98.00;;;;;;5069815;28;20297;-68
2021/01/11 10:02:31;;;;;;;4.35;1.63;;;-3.10;98.00;;;;;;5068122;28;20206;-68
2021/01/11 10:04:57;;;;;;;1.10;1.10;;;-3.00;98.00;;;;;;5069736;28;20199;-68
2021/01/11 10:07:23;;;;;;;1.80;1.10;;;-2.80;98.00;;;;;;5068111;28;20207;-67
2021/01/11 10:09:51;;;;;;;1.20;1.00;;;-2.80;98.00;;;;;;5069889;28;20451;-69
2021/01/11 10:12:19;;;;;;;1.70;1.50;;;-2.70;98.00;;;;;;5068111;28;20207;-69
2021/01/11 10:14:46;;;;;;;1.20;1.10;;;-2.70;98.00;;;;;;5069607;28;20726;-70
2021/01/11 10:17:12;;;;;;;3.28;1.75;;;-2.70;98.00;;;;;;5067984;28;20207;-68
2021/01/11 10:19:39;;;;;;;1.35;1.25;;;-2.80;98.00;;;;;;5070130;28;20237;-69
2021/01/11 10:22:05;;;;;;;1.17;1.00;;;-2.70;98.00;;;;;;5070229;28;20202;-68
2021/01/11 10:24:32;;;;;;;1.83;1.52;;;-2.50;98.00;;;;;;5068011;28;20206;-68
2021/01/11 10:27:00;;;;;;;1.92;1.55;;;-2.50;98.00;;;;;;5070288;28;20218;-68
2021/01/11 10:29:26;;;;;;;2.15;1.77;;;-2.30;98.00;;;;;;5067584;28;20203;-67
2021/01/11 10:31:54;;;;;;;1.55;1.42;;;-2.20;98.00;;;;;;5072730;28;20576;-68
2021/01/11 10:34:21;;;;;;;2.50;1.83;;;-2.00;98.00;;;;;;5071211;28;20207;-68
2021/01/11 10:36:49;;;;;;;1.35;1.33;;;-1.90;98.00;;;;;;5073669;28;20210;-68
2021/01/11 10:39:20;;;;;;;1.20;1.15;;;-1.80;98.00;;;;;;5071221;28;20226;-65
2021/01/11 10:41:50;;;;;;;1.20;1.10;;;-1.70;98.00;;;;;;5073769;28;20203;-66
2021/01/11 10:44:17;;;;;;;1.58;1.45;;;-1.90;98.00;;;;;;5071581;28;20211;-66
2021/01/11 10:46:44;;;;;;;2.35;1.67;;;-2.20;98.00;;;;;;5073628;28;20277;-66
2021/01/11 10:49:11;;;;;;;1.20;1.20;;;-2.40;98.00;;;;;;5071276;28;20255;-67
2021/01/11 10:51:38;;;;;;;1.73;1.33;;;-2.40;98.00;;;;;;5073753;28;20202;-67
2021/01/11 10:54:04;;;;;;;1.17;1.10;;;-2.50;98.00;;;;;;5071117;28;20267;-67
2021/01/11 10:56:32;;;;;;;1.50;1.33;;;-2.40;98.00;;;;;;5073398;28;20206;-67
2021/01/11 10:58:58;;;;;;;3.05;2.15;;;-2.40;98.00;;;;;;5071054;28;20209;-66
2021/01/11 11:01:28;;;;;;;3.88;2.85;;;-2.40;98.00;;;;;;5073316;28;20203;-68
2021/01/11 11:03:54;;;;;;;1.50;1.40;;;-2.30;98.00;;;;;;5071197;28;20549;-68
2021/01/11 11:06:25;;;;;;;1.50;1.40;;;-2.10;98.00;;;;;;5073308;28;20207;-68
2021/01/11 11:08:52;;;;;;;1.45;1.30;;;-1.80;98.00;;;;;;5070873;28;20206;-69
2021/01/11 11:11:21;;;;;;;2.05;1.42;;;-1.50;98.00;;;;;;5072699;28;20213;-67
2021/01/11 11:13:49;;;;;;;2.75;1.92;;;-1.50;98.00;;;;;;5070769;28;20203;-67
2021/01/11 11:16:15;;;;;;;2.60;1.83;;;-1.40;98.00;;;;;;5073054;28;20203;-68
2021/01/11 11:18:43;;;;;;;2.08;1.92;;;-1.20;98.00;;;;;;5071228;28;20210;-68
2021/01/11 11:21:11;;;;;;;7.22;2.00;;;-1.30;98.00;;;;;;5072936;28;20226;-68
2021/01/11 11:23:38;;;;;;;1.20;1.00;;;-1.30;98.00;;;;;;5070884;28;20209;-67
2021/01/11 11:26:07;;;;;;;1.83;1.40;;;-1.10;98.00;;;;;;5072943;28;20210;-69
2021/01/11 11:28:34;;;;;;;2.17;1.45;;;-1.10;98.00;;;;;;5070435;28;20669;-67
2021/01/11 11:31:01;;;;;;;1.30;1.30;;;-1.00;98.00;;;;;;5072826;28;20213;-69
2021/01/11 11:33:28;;;;;;;2.10;1.95;;;-1.00;98.00;;;;;;5070144;28;20202;-68
2021/01/11 11:35:55;;;;;;;1.55;1.52;;;-0.90;98.00;;;;;;5072686;28;20665;-67
2021/01/11 11:38:22;;;;;;;1.35;1.25;;;-0.70;98.00;;;;;;5070790;28;20218;-68
2021/01/11 11:40:51;;;;;;;1.25;1.20;;;-0.60;98.00;;;;;;5072570;28;20253;-68
2021/01/11 11:43:18;;;;;;;1.20;1.00;;;-0.60;98.00;;;;;;5069678;28;20199;-68
2021/01/11 11:45:44;;;;;;;1.20;1.05;;;-0.60;98.00;;;;;;5072733;28;20236;-68
2021/01/11 11:48:11;;;;;;;1.30;1.10;;;-0.50;98.00;;;;;;5069228;28;20218;-69
2021/01/11 11:50:39;;;;;;;3.17;1.95;;;-0.50;98.00;;;;;;5072684;28;20571;-68
2021/01/11 11:53:07;;;;;;;2.65;1.33;;;-0.50;98.00;;;;;;5070045;28;20225;-68
2021/01/11 11:55:34;;;;;;;2.00;1.42;;;-0.50;98.00;;;;;;5072536;28;20256;-68
2021/01/11 11:58:01;;;;;;;1.20;1.10;;;-0.60;98.00;;;;;;5070181;28;20573;-68
2021/01/11 12:00:28;;;;;;;2.38;1.80;;;-0.60;98.00;;;;;;5072236;28;20225;-68
2021/01/11 12:02:55;;;;;;;5.90;2.17;;;-0.60;98.00;;;;;;5069916;28;20209;-68
2021/01/11 12:05:21;;;;;;;1.40;1.05;;;-0.50;98.00;;;;;;5071766;28;20207;-68
2021/01/11 12:07:50;;;;;;;1.20;1.00;;;-0.30;98.00;;;;;;5069350;28;20705;-68
2021/01/11 12:10:18;;;;;;;2.15;2.03;;;0.00;98.00;;;;;;5072052;28;20649;-68
2021/01/11 12:12:47;;;;;;;1.30;1.25;;;0.20;98.00;;;;;;5069685;28;20726;-68
2021/01/11 12:15:15;;;;;;;1.20;1.00;;;0.20;98.00;;;;;;5072043;28;20702;-69
2021/01/11 12:17:44;;;;;;;1.30;1.10;;;0.00;98.00;;;;;;5069939;28;20207;-68
2021/01/11 12:20:11;;;;;;;1.20;1.10;;;0.00;98.00;;;;;;5071713;28;20231;-67
2021/01/11 12:22:38;;;;;;;1.58;1.20;;;0.10;98.00;;;;;;5069620;28;20951;-68
2021/01/11 12:25:05;;;;;;;1.37;1.17;;;0.00;98.00;;;;;;5071579;28;20694;-69
2021/01/11 12:27:33;;;;;;;1.55;1.38;;;-0.10;98.00;;;;;;5069463;28;20465;-68
2021/01/11 12:30:01;;;;;;;1.70;1.65;;;0.00;98.00;;;;;;5071567;28;20665;-67
2021/01/11 12:32:28;;;;;;;1.20;1.00;;;0.20;98.00;;;;;;5069670;28;20568;-68
2021/01/11 12:34:54;;;;;;;1.20;1.10;;;0.20;98.00;;;;;;5071880;28;20457;-68
2021/01/11 12:37:21;;;;;;;1.20;1.10;;;0.30;98.00;;;;;;5071335;28;20457;-67
2021/01/11 12:39:48;;;;;;;1.67;1.57;;;0.40;98.00;;;;;;5070727;28;20228;-67
2021/01/11 12:42:16;;;;;;;1.20;1.00;;;0.60;98.00;;;;;;5071802;28;20454;-68
2021/01/11 12:44:47;;;;;;;1.60;1.50;;;0.70;98.00;;;;;;5069458;28;20246;-68
2021/01/11 12:47:14;;;;;;;2.10;1.97;;;0.60;98.00;;;;;;5071659;28;20555;-68
2021/01/11 12:49:41;;;;;;;1.50;1.40;;;0.60;98.00;;;;;;5069317;28;20449;-68
2021/01/11 12:52:11;;;;;;;1.37;1.33;;;0.60;98.00;;;;;;5071828;28;20208;-68
2021/01/11 12:54:38;;;;;;;1.98;1.55;;;0.60;98.00;;;;;;5068958;28;20455;-68
2021/01/11 12:57:05;;;;;;;1.97;1.53;;;0.80;98.00;;;;;;5071678;28;20225;-68